sensor_id;sensor_type;location;lat;lon;timestamp;temperature;humidity
2002;DHT22;1003;48.002;7.788;2024-03-17T00:00:37;8.50;99.90
2002;DHT22;1003;48.002;7.788;2024-03-17T00:03:06;8.50;99.90
2002;DHT22;1003;48.002;7.788;2024-03-17T00:05:34;8.50;99.90
2002;DHT22;1003;48.002;7.788;2024-03-17T00:08:02;8.50;99.90
2002;DHT22;1003;48.002;7.788;2024-03-17T00:10:30;8.50;99.90
2002;DHT22;1003;48.002;7.788;2024-03-17T00:12:58;8.50;99.90
2002;DHT22;1003;48.002;7.788;2024-03-17T00:15:24;8.60;99.90
2002;DHT22;1003;48.002;7.788;2024-03-17T00:17:51;8.60;99.90
2002;DHT22;1003;48.002;7.788;2024-03-17T00:20:16;8.50;99.90
2002;DHT22;1003;48.002;7.788;2024-03-17T00:22:47;8.60;99.90
2002;DHT22;1003;48.002;7.788;2024-03-17T00:25:14;8.60;99.90
2002;DHT22;1003;48.002;7.788;2024-03-17T00:27:41;8.60;99.90
2002;DHT22;1003;48.002;7.788;2024-03-17T00:30:09;8.60;99.90
2002;DHT22;1003;48.002;7.788;2024-03-17T00:32:39;8.50;99.90
2002;DHT22;1003;48.002;7.788;2024-03-17T00:35:06;8.50;99.90
2002;DHT22;1003;48.002;7.788;2024-03-17T00:37:34;8.50;99.90
2002;DHT22;1003;48.002;7.788;2024-03-17T00:40:03;8.50;99.90
2002;DHT22;1003;48.002;7.788;2024-03-17T00:42:32;8.50;99.90
2002;DHT22;1003;48.002;7.788;2024-03-17T00:44:59;8.50;99.90
2002;DHT22;1003;48.002;7.788;2024-03-17T00:47:26;8.40;99.90
2002;DHT22;1003;48.002;7.788;2024-03-17T00:49:52;8.40;99.90
2002;DHT22;1003;48.002;7.788;2024-03-17T00:52:19;8.30;99.90
2002;DHT22;1003;48.002;7.788;2024-03-17T00:54:47;8.30;99.90
2002;DHT22;1003;48.002;7.788;2024-03-17T00:57:14;8.20;99.90
2002;DHT22;1003;48.002;7.788;2024-03-17T00:59:41;8.20;99.90
2002;DHT22;1003;48.002;7.788;2024-03-17T01:02:10;8.20;99.90
2002;DHT22;1003;48.002;7.788;2024-03-17T01:04:39;8.20;99.90
2002;DHT22;1003;48.002;7.788;2024-03-17T01:07:06;8.10;99.90
2002;DHT22;1003;48.002;7.788;2024-03-17T01:09:32;8.10;99.90
2002;DHT22;1003;48.002;7.788;2024-03-17T01:11:59;8.10;99.90
2002;DHT22;1003;48.002;7.788;2024-03-17T01:14:25;8.10;99.90
2002;DHT22;1003;48.002;7.788;2024-03-17T01:16:51;8.20;99.90
2002;DHT22;1003;48.002;7.788;2024-03-17T01:19:17;8.20;99.90
2002;DHT22;1003;48.002;7.788;2024-03-17T01:21:44;8.20;99.90
2002;DHT22;1003;48.002;7.788;2024-03-17T01:24:10;8.20;99.90
2002;DHT22;1003;48.002;7.788;2024-03-17T01:26:36;8.10;99.90
2002;DHT22;1003;48.002;7.788;2024-03-17T01:29:02;8.10;99.90
2002;DHT22;1003;48.002;7.788;2024-03-17T01:31:29;8.20;99.90
2002;DHT22;1003;48.002;7.788;2024-03-17T01:33:54;8.20;99.90
2002;DHT22;1003;48.002;7.788;2024-03-17T01:36:21;8.20;99.90
2002;DHT22;1003;48.002;7.788;2024-03-17T01:38:47;8.20;99.90
2002;DHT22;1003;48.002;7.788;2024-03-17T01:41:14;8.20;99.90
2002;DHT22;1003;48.002;7.788;2024-03-17T01:43:40;8.20;99.90
2002;DHT22;1003;48.002;7.788;2024-03-17T01:46:12;8.20;99.90
2002;DHT22;1003;48.002;7.788;2024-03-17T01:48:40;8.20;99.90
2002;DHT22;1003;48.002;7.788;2024-03-17T01:51:07;8.20;99.90
2002;DHT22;1003;48.002;7.788;2024-03-17T01:53:36;8.20;99.90
2002;DHT22;1003;48.002;7.788;2024-03-17T01:56:05;8.20;99.90
2002;DHT22;1003;48.002;7.788;2024-03-17T01:58:36;8.20;99.90
2002;DHT22;1003;48.002;7.788;2024-03-17T02:01:03;8.30;99.90
2002;DHT22;1003;48.002;7.788;2024-03-17T02:03:30;8.20;99.90
2002;DHT22;1003;48.002;7.788;2024-03-17T02:05:58;8.20;99.90
2002;DHT22;1003;48.002;7.788;2024-03-17T02:08:24;8.20;99.90
2002;DHT22;1003;48.002;7.788;2024-03-17T02:10:54;8.20;99.90
2002;DHT22;1003;48.002;7.788;2024-03-17T02:13:24;8.20;99.90
2002;DHT22;1003;48.002;7.788;2024-03-17T02:15:50;8.20;99.90
2002;DHT22;1003;48.002;7.788;2024-03-17T02:18:16;8.30;99.90
2002;DHT22;1003;48.002;7.788;2024-03-17T02:20:43;8.10;99.90
2002;DHT22;1003;48.002;7.788;2024-03-17T02:23:24;7.90;99.90
2002;DHT22;1003;48.002;7.788;2024-03-17T02:25:52;7.70;99.90
2002;DHT22;1003;48.002;7.788;2024-03-17T02:28:18;7.50;99.90
2002;DHT22;1003;48.002;7.788;2024-03-17T02:30:45;7.50;99.90
2002;DHT22;1003;48.002;7.788;2024-03-17T02:33:11;7.30;99.90
2002;DHT22;1003;48.002;7.788;2024-03-17T02:35:38;7.20;99.90
2002;DHT22;1003;48.002;7.788;2024-03-17T02:38:04;7.10;99.90
2002;DHT22;1003;48.002;7.788;2024-03-17T02:40:31;7.00;99.90
2002;DHT22;1003;48.002;7.788;2024-03-17T02:42:56;6.90;99.90
2002;DHT22;1003;48.002;7.788;2024-03-17T02:45:23;6.80;99.90
2002;DHT22;1003;48.002;7.788;2024-03-17T02:47:49;6.80;99.90
2002;DHT22;1003;48.002;7.788;2024-03-17T02:50:16;6.70;99.90
2002;DHT22;1003;48.002;7.788;2024-03-17T02:52:42;6.60;99.90
2002;DHT22;1003;48.002;7.788;2024-03-17T02:55:09;6.60;99.90
2002;DHT22;1003;48.002;7.788;2024-03-17T02:57:36;6.50;99.90
2002;DHT22;1003;48.002;7.788;2024-03-17T03:00:03;6.50;99.90
2002;DHT22;1003;48.002;7.788;2024-03-17T03:02:30;6.50;99.90
2002;DHT22;1003;48.002;7.788;2024-03-17T03:04:57;6.50;99.90
2002;DHT22;1003;48.002;7.788;2024-03-17T03:07:23;6.30;99.90
2002;DHT22;1003;48.002;7.788;2024-03-17T03:09:51;6.20;99.90
2002;DHT22;1003;48.002;7.788;2024-03-17T03:12:17;6.10;99.90
2002;DHT22;1003;48.002;7.788;2024-03-17T03:14:44;6.00;99.90
2002;DHT22;1003;48.002;7.788;2024-03-17T03:17:12;5.90;99.90
2002;DHT22;1003;48.002;7.788;2024-03-17T03:19:39;5.90;99.90
2002;DHT22;1003;48.002;7.788;2024-03-17T03:22:05;5.90;99.90
2002;DHT22;1003;48.002;7.788;2024-03-17T03:24:32;5.90;99.90
2002;DHT22;1003;48.002;7.788;2024-03-17T03:26:59;5.80;99.90
2002;DHT22;1003;48.002;7.788;2024-03-17T03:29:25;5.90;99.90
2002;DHT22;1003;48.002;7.788;2024-03-17T03:31:53;5.90;99.90
2002;DHT22;1003;48.002;7.788;2024-03-17T03:34:20;5.90;99.90
2002;DHT22;1003;48.002;7.788;2024-03-17T03:36:46;6.00;99.90
2002;DHT22;1003;48.002;7.788;2024-03-17T03:39:13;6.00;99.90
2002;DHT22;1003;48.002;7.788;2024-03-17T03:41:40;6.10;99.90
2002;DHT22;1003;48.002;7.788;2024-03-17T03:44:07;6.10;99.90
2002;DHT22;1003;48.002;7.788;2024-03-17T03:46:36;6.00;99.90
2002;DHT22;1003;48.002;7.788;2024-03-17T03:49:02;6.10;99.90
2002;DHT22;1003;48.002;7.788;2024-03-17T03:51:29;6.10;99.90
2002;DHT22;1003;48.002;7.788;2024-03-17T03:53:56;6.00;99.90
2002;DHT22;1003;48.002;7.788;2024-03-17T03:56:22;6.10;99.90
2002;DHT22;1003;48.002;7.788;2024-03-17T03:58:50;6.20;99.90
2002;DHT22;1003;48.002;7.788;2024-03-17T04:01:17;6.20;99.90
2002;DHT22;1003;48.002;7.788;2024-03-17T04:03:47;6.10;99.90
2002;DHT22;1003;48.002;7.788;2024-03-17T04:06:15;6.00;99.90
2002;DHT22;1003;48.002;7.788;2024-03-17T04:08:42;6.00;99.90
2002;DHT22;1003;48.002;7.788;2024-03-17T04:11:09;6.10;99.90
2002;DHT22;1003;48.002;7.788;2024-03-17T04:13:36;6.30;99.90
2002;DHT22;1003;48.002;7.788;2024-03-17T04:16:07;6.20;99.90
2002;DHT22;1003;48.002;7.788;2024-03-17T04:18:35;6.20;99.90
2002;DHT22;1003;48.002;7.788;2024-03-17T04:21:04;6.20;99.90
2002;DHT22;1003;48.002;7.788;2024-03-17T04:23:33;6.20;99.90
2002;DHT22;1003;48.002;7.788;2024-03-17T04:26:00;6.30;99.90
2002;DHT22;1003;48.002;7.788;2024-03-17T04:28:28;6.30;99.90
2002;DHT22;1003;48.002;7.788;2024-03-17T04:31:08;6.30;99.90
2002;DHT22;1003;48.002;7.788;2024-03-17T04:33:37;6.40;99.90
2002;DHT22;1003;48.002;7.788;2024-03-17T04:36:04;6.40;99.90
2002;DHT22;1003;48.002;7.788;2024-03-17T04:38:31;6.40;99.90
2002;DHT22;1003;48.002;7.788;2024-03-17T04:40:58;6.40;99.90
2002;DHT22;1003;48.002;7.788;2024-03-17T04:43:31;6.50;99.90
2002;DHT22;1003;48.002;7.788;2024-03-17T04:46:02;6.40;99.90
2002;DHT22;1003;48.002;7.788;2024-03-17T04:48:32;6.50;99.90
2002;DHT22;1003;48.002;7.788;2024-03-17T04:51:00;6.50;99.90
2002;DHT22;1003;48.002;7.788;2024-03-17T04:53:27;6.50;99.90
2002;DHT22;1003;48.002;7.788;2024-03-17T04:56:05;6.50;99.90
2002;DHT22;1003;48.002;7.788;2024-03-17T04:58:32;6.50;99.90
2002;DHT22;1003;48.002;7.788;2024-03-17T05:01:06;6.50;99.90
2002;DHT22;1003;48.002;7.788;2024-03-17T05:03:34;6.50;99.90
2002;DHT22;1003;48.002;7.788;2024-03-17T05:06:02;6.50;99.90
2002;DHT22;1003;48.002;7.788;2024-03-17T05:08:30;6.40;99.90
2002;DHT22;1003;48.002;7.788;2024-03-17T05:11:02;6.40;99.90
2002;DHT22;1003;48.002;7.788;2024-03-17T05:13:33;6.40;99.90
2002;DHT22;1003;48.002;7.788;2024-03-17T05:16:01;6.50;99.90
2002;DHT22;1003;48.002;7.788;2024-03-17T05:18:29;6.50;99.90
2002;DHT22;1003;48.002;7.788;2024-03-17T05:21:03;6.40;99.90
2002;DHT22;1003;48.002;7.788;2024-03-17T05:23:33;6.50;99.90
2002;DHT22;1003;48.002;7.788;2024-03-17T05:26:01;6.50;99.90
2002;DHT22;1003;48.002;7.788;2024-03-17T05:28:30;6.50;99.90
2002;DHT22;1003;48.002;7.788;2024-03-17T05:30:57;6.50;99.90
2002;DHT22;1003;48.002;7.788;2024-03-17T05:33:25;6.50;99.90
2002;DHT22;1003;48.002;7.788;2024-03-17T05:35:54;6.50;99.90
2002;DHT22;1003;48.002;7.788;2024-03-17T05:38:22;6.60;99.90
2002;DHT22;1003;48.002;7.788;2024-03-17T05:40:59;6.60;99.90
2002;DHT22;1003;48.002;7.788;2024-03-17T05:43:29;6.60;99.90
2002;DHT22;1003;48.002;7.788;2024-03-17T05:46:01;6.70;99.90
2002;DHT22;1003;48.002;7.788;2024-03-17T05:48:40;6.70;99.90
2002;DHT22;1003;48.002;7.788;2024-03-17T05:51:11;6.60;99.90
2002;DHT22;1003;48.002;7.788;2024-03-17T05:53:41;6.60;99.90
2002;DHT22;1003;48.002;7.788;2024-03-17T05:56:09;6.60;99.90
2002;DHT22;1003;48.002;7.788;2024-03-17T05:58:39;6.70;99.90
2002;DHT22;1003;48.002;7.788;2024-03-17T06:01:06;6.70;99.90
2002;DHT22;1003;48.002;7.788;2024-03-17T06:03:34;6.80;99.90
2002;DHT22;1003;48.002;7.788;2024-03-17T06:06:05;6.80;99.90
2002;DHT22;1003;48.002;7.788;2024-03-17T06:08:35;6.80;99.90
2002;DHT22;1003;48.002;7.788;2024-03-17T06:11:03;6.80;99.90
2002;DHT22;1003;48.002;7.788;2024-03-17T06:13:29;6.80;99.90
2002;DHT22;1003;48.002;7.788;2024-03-17T06:15:56;6.60;99.90
2002;DHT22;1003;48.002;7.788;2024-03-17T06:18:26;6.40;99.90
2002;DHT22;1003;48.002;7.788;2024-03-17T06:20:54;6.50;99.90
2002;DHT22;1003;48.002;7.788;2024-03-17T06:23:23;6.50;99.90
2002;DHT22;1003;48.002;7.788;2024-03-17T06:25:52;6.30;99.90
2002;DHT22;1003;48.002;7.788;2024-03-17T06:28:19;6.10;99.90
2002;DHT22;1003;48.002;7.788;2024-03-17T06:30:55;6.00;99.90
2002;DHT22;1003;48.002;7.788;2024-03-17T06:33:24;5.90;99.90
2002;DHT22;1003;48.002;7.788;2024-03-17T06:35:52;5.90;99.90
2002;DHT22;1003;48.002;7.788;2024-03-17T06:38:18;5.90;99.90
2002;DHT22;1003;48.002;7.788;2024-03-17T06:40:52;5.90;99.90
2002;DHT22;1003;48.002;7.788;2024-03-17T06:43:19;6.00;99.90
2002;DHT22;1003;48.002;7.788;2024-03-17T06:45:57;6.10;99.90
2002;DHT22;1003;48.002;7.788;2024-03-17T06:48:25;6.10;99.90
2002;DHT22;1003;48.002;7.788;2024-03-17T06:50:53;6.20;99.90
2002;DHT22;1003;48.002;7.788;2024-03-17T06:53:21;6.30;99.90
2002;DHT22;1003;48.002;7.788;2024-03-17T06:55:55;6.40;99.90
2002;DHT22;1003;48.002;7.788;2024-03-17T06:58:24;6.40;99.90
2002;DHT22;1003;48.002;7.788;2024-03-17T07:00:59;6.50;99.90
2002;DHT22;1003;48.002;7.788;2024-03-17T07:03:31;6.60;99.90
2002;DHT22;1003;48.002;7.788;2024-03-17T07:05:59;6.60;99.90
2002;DHT22;1003;48.002;7.788;2024-03-17T07:08:29;6.80;99.90
2002;DHT22;1003;48.002;7.788;2024-03-17T07:10:57;6.90;99.90
2002;DHT22;1003;48.002;7.788;2024-03-17T07:13:37;7.00;99.90
2002;DHT22;1003;48.002;7.788;2024-03-17T07:16:06;7.20;99.90
2002;DHT22;1003;48.002;7.788;2024-03-17T07:18:33;7.30;99.90
2002;DHT22;1003;48.002;7.788;2024-03-17T07:21:02;7.60;99.90
2002;DHT22;1003;48.002;7.788;2024-03-17T07:23:31;7.80;99.90
2002;DHT22;1003;48.002;7.788;2024-03-17T07:25:59;7.90;99.90
2002;DHT22;1003;48.002;7.788;2024-03-17T07:28:27;8.10;99.90
2002;DHT22;1003;48.002;7.788;2024-03-17T07:30:55;8.20;99.90
2002;DHT22;1003;48.002;7.788;2024-03-17T07:33:24;8.30;99.90
2002;DHT22;1003;48.002;7.788;2024-03-17T07:35:56;8.40;99.90
2002;DHT22;1003;48.002;7.788;2024-03-17T07:38:25;8.40;99.90
2002;DHT22;1003;48.002;7.788;2024-03-17T07:40:59;8.50;99.90
2002;DHT22;1003;48.002;7.788;2024-03-17T07:43:28;8.50;99.90
2002;DHT22;1003;48.002;7.788;2024-03-17T07:46:10;8.60;99.90
2002;DHT22;1003;48.002;7.788;2024-03-17T07:48:39;8.70;99.90
2002;DHT22;1003;48.002;7.788;2024-03-17T07:51:14;8.90;99.90
2002;DHT22;1003;48.002;7.788;2024-03-17T07:53:44;9.10;99.90
2002;DHT22;1003;48.002;7.788;2024-03-17T07:56:13;9.50;99.90
2002;DHT22;1003;48.002;7.788;2024-03-17T07:58:43;9.90;99.90
2002;DHT22;1003;48.002;7.788;2024-03-17T08:01:12;10.10;99.90
2002;DHT22;1003;48.002;7.788;2024-03-17T08:03:41;10.30;99.90
2002;DHT22;1003;48.002;7.788;2024-03-17T08:06:12;10.50;99.90
2002;DHT22;1003;48.002;7.788;2024-03-17T08:08:39;10.60;99.90
2002;DHT22;1003;48.002;7.788;2024-03-17T08:11:06;10.60;99.90
2002;DHT22;1003;48.002;7.788;2024-03-17T08:13:33;10.60;99.90
2002;DHT22;1003;48.002;7.788;2024-03-17T08:16:04;10.50;99.90
2002;DHT22;1003;48.002;7.788;2024-03-17T08:18:33;10.50;99.90
2002;DHT22;1003;48.002;7.788;2024-03-17T08:21:00;10.60;99.90
2002;DHT22;1003;48.002;7.788;2024-03-17T08:23:29;10.60;99.90
2002;DHT22;1003;48.002;7.788;2024-03-17T08:25:57;10.70;99.90
2002;DHT22;1003;48.002;7.788;2024-03-17T08:28:26;10.70;99.90
2002;DHT22;1003;48.002;7.788;2024-03-17T08:30:55;10.60;99.90
2002;DHT22;1003;48.002;7.788;2024-03-17T08:33:23;10.80;99.90
2002;DHT22;1003;48.002;7.788;2024-03-17T08:35:58;10.90;99.90
2002;DHT22;1003;48.002;7.788;2024-03-17T08:38:28;11.30;99.90
2002;DHT22;1003;48.002;7.788;2024-03-17T08:40:55;11.50;99.90
2002;DHT22;1003;48.002;7.788;2024-03-17T08:43:23;11.70;99.90
2002;DHT22;1003;48.002;7.788;2024-03-17T08:45:57;11.60;99.90
2002;DHT22;1003;48.002;7.788;2024-03-17T08:48:30;11.60;99.90
2002;DHT22;1003;48.002;7.788;2024-03-17T08:50:59;11.80;99.90
2002;DHT22;1003;48.002;7.788;2024-03-17T08:53:27;11.80;99.90
2002;DHT22;1003;48.002;7.788;2024-03-17T08:55:55;11.70;99.90
2002;DHT22;1003;48.002;7.788;2024-03-17T08:58:25;11.80;99.90
2002;DHT22;1003;48.002;7.788;2024-03-17T09:00:52;11.90;99.90
2002;DHT22;1003;48.002;7.788;2024-03-17T09:03:19;11.90;99.90
2002;DHT22;1003;48.002;7.788;2024-03-17T09:05:47;11.80;99.90
2002;DHT22;1003;48.002;7.788;2024-03-17T09:08:19;11.90;99.90
2002;DHT22;1003;48.002;7.788;2024-03-17T09:10:49;11.80;99.90
2002;DHT22;1003;48.002;7.788;2024-03-17T09:13:19;11.80;99.90
2002;DHT22;1003;48.002;7.788;2024-03-17T09:15:51;12.00;99.90
2002;DHT22;1003;48.002;7.788;2024-03-17T09:18:18;12.00;99.90
2002;DHT22;1003;48.002;7.788;2024-03-17T09:20:45;11.70;99.90
2002;DHT22;1003;48.002;7.788;2024-03-17T09:23:12;11.70;99.90
2002;DHT22;1003;48.002;7.788;2024-03-17T09:25:39;11.60;99.90
2002;DHT22;1003;48.002;7.788;2024-03-17T09:28:06;11.70;99.90
2002;DHT22;1003;48.002;7.788;2024-03-17T09:30:32;11.80;99.90
2002;DHT22;1003;48.002;7.788;2024-03-17T09:32:59;11.80;99.90
2002;DHT22;1003;48.002;7.788;2024-03-17T09:35:26;11.80;99.90
2002;DHT22;1003;48.002;7.788;2024-03-17T09:37:53;11.90;99.90
2002;DHT22;1003;48.002;7.788;2024-03-17T09:40:19;12.00;99.90
2002;DHT22;1003;48.002;7.788;2024-03-17T09:42:46;11.90;99.90
2002;DHT22;1003;48.002;7.788;2024-03-17T09:45:15;12.00;99.90
2002;DHT22;1003;48.002;7.788;2024-03-17T09:47:43;11.80;99.90
2002;DHT22;1003;48.002;7.788;2024-03-17T09:50:13;11.90;99.90
2002;DHT22;1003;48.002;7.788;2024-03-17T09:52:42;12.10;99.90
2002;DHT22;1003;48.002;7.788;2024-03-17T09:55:16;12.20;99.90
2002;DHT22;1003;48.002;7.788;2024-03-17T09:57:43;12.20;99.90
2002;DHT22;1003;48.002;7.788;2024-03-17T10:00:14;12.20;99.90
2002;DHT22;1003;48.002;7.788;2024-03-17T10:02:45;12.00;99.90
2002;DHT22;1003;48.002;7.788;2024-03-17T10:05:20;12.00;99.90
2002;DHT22;1003;48.002;7.788;2024-03-17T10:07:48;12.00;99.90
2002;DHT22;1003;48.002;7.788;2024-03-17T10:10:17;12.00;99.90
2002;DHT22;1003;48.002;7.788;2024-03-17T10:12:51;12.10;99.90
2002;DHT22;1003;48.002;7.788;2024-03-17T10:15:19;11.90;99.90
2002;DHT22;1003;48.002;7.788;2024-03-17T10:17:46;12.00;99.90
2002;DHT22;1003;48.002;7.788;2024-03-17T10:20:23;11.80;99.90
2002;DHT22;1003;48.002;7.788;2024-03-17T10:25:24;12.00;99.90
2002;DHT22;1003;48.002;7.788;2024-03-17T10:27:52;12.10;99.90
2002;DHT22;1003;48.002;7.788;2024-03-17T10:30:20;12.20;99.90
2002;DHT22;1003;48.002;7.788;2024-03-17T10:32:55;12.10;99.90
2002;DHT22;1003;48.002;7.788;2024-03-17T10:35:31;12.30;99.90
2002;DHT22;1003;48.002;7.788;2024-03-17T10:38:05;12.30;99.90
2002;DHT22;1003;48.002;7.788;2024-03-17T10:40:33;12.30;99.90
2002;DHT22;1003;48.002;7.788;2024-03-17T10:43:03;12.30;99.90
2002;DHT22;1003;48.002;7.788;2024-03-17T10:45:32;12.20;99.90
2002;DHT22;1003;48.002;7.788;2024-03-17T10:48:02;12.40;99.90
2002;DHT22;1003;48.002;7.788;2024-03-17T10:50:30;12.40;99.90
2002;DHT22;1003;48.002;7.788;2024-03-17T10:53:05;12.50;99.90
2002;DHT22;1003;48.002;7.788;2024-03-17T10:55:43;12.40;99.90
2002;DHT22;1003;48.002;7.788;2024-03-17T10:58:27;12.50;99.90
2002;DHT22;1003;48.002;7.788;2024-03-17T11:01:13;12.50;99.90
2002;DHT22;1003;48.002;7.788;2024-03-17T11:03:41;12.70;99.90
2002;DHT22;1003;48.002;7.788;2024-03-17T11:06:10;12.90;99.90
2002;DHT22;1003;48.002;7.788;2024-03-17T11:08:37;12.90;99.90
2002;DHT22;1003;48.002;7.788;2024-03-17T11:11:07;13.00;99.90
2002;DHT22;1003;48.002;7.788;2024-03-17T11:13:34;13.00;99.90
2002;DHT22;1003;48.002;7.788;2024-03-17T11:16:04;13.00;99.90
2002;DHT22;1003;48.002;7.788;2024-03-17T11:18:52;13.00;99.90
2002;DHT22;1003;48.002;7.788;2024-03-17T11:21:21;13.20;99.90
2002;DHT22;1003;48.002;7.788;2024-03-17T11:23:58;13.50;99.90
2002;DHT22;1003;48.002;7.788;2024-03-17T11:26:28;13.40;99.90
2002;DHT22;1003;48.002;7.788;2024-03-17T11:28:57;13.20;99.90
2002;DHT22;1003;48.002;7.788;2024-03-17T11:31:32;13.00;99.90
2002;DHT22;1003;48.002;7.788;2024-03-17T11:33:58;13.10;99.90
2002;DHT22;1003;48.002;7.788;2024-03-17T11:39:06;13.00;99.90
2002;DHT22;1003;48.002;7.788;2024-03-17T11:41:44;13.20;99.90
2002;DHT22;1003;48.002;7.788;2024-03-17T11:46:59;13.50;99.90
2002;DHT22;1003;48.002;7.788;2024-03-17T11:49:33;13.30;99.90
2002;DHT22;1003;48.002;7.788;2024-03-17T11:54:43;13.20;99.90
2002;DHT22;1003;48.002;7.788;2024-03-17T11:57:13;13.20;99.90
2002;DHT22;1003;48.002;7.788;2024-03-17T11:59:47;13.10;99.90
2002;DHT22;1003;48.002;7.788;2024-03-17T12:02:21;13.20;99.90
2002;DHT22;1003;48.002;7.788;2024-03-17T12:04:49;13.30;99.90
2002;DHT22;1003;48.002;7.788;2024-03-17T12:07:17;13.10;99.90
2002;DHT22;1003;48.002;7.788;2024-03-17T12:09:45;13.20;99.90
2002;DHT22;1003;48.002;7.788;2024-03-17T12:15:00;13.00;99.90
2002;DHT22;1003;48.002;7.788;2024-03-17T12:17:28;13.00;99.90
2002;DHT22;1003;48.002;7.788;2024-03-17T12:19:54;12.90;99.90
2002;DHT22;1003;48.002;7.788;2024-03-17T12:22:23;12.90;99.90
2002;DHT22;1003;48.002;7.788;2024-03-17T12:24:52;12.80;99.90
2002;DHT22;1003;48.002;7.788;2024-03-17T12:27:22;12.70;99.90
2002;DHT22;1003;48.002;7.788;2024-03-17T12:29:51;12.90;99.90
2002;DHT22;1003;48.002;7.788;2024-03-17T12:32:23;13.00;99.90
2002;DHT22;1003;48.002;7.788;2024-03-17T12:34:52;13.00;99.90
2002;DHT22;1003;48.002;7.788;2024-03-17T12:37:25;13.00;99.90
2002;DHT22;1003;48.002;7.788;2024-03-17T12:39:55;13.00;99.90
2002;DHT22;1003;48.002;7.788;2024-03-17T12:42:25;12.90;99.90
2002;DHT22;1003;48.002;7.788;2024-03-17T12:45:01;12.90;99.90
2002;DHT22;1003;48.002;7.788;2024-03-17T12:47:30;12.80;99.90
2002;DHT22;1003;48.002;7.788;2024-03-17T12:49:58;12.90;99.90
2002;DHT22;1003;48.002;7.788;2024-03-17T12:52:30;13.30;99.90
2002;DHT22;1003;48.002;7.788;2024-03-17T12:55:06;13.10;99.90
2002;DHT22;1003;48.002;7.788;2024-03-17T13:00:45;12.70;99.90
2002;DHT22;1003;48.002;7.788;2024-03-17T13:03:24;12.70;99.90
2002;DHT22;1003;48.002;7.788;2024-03-17T13:05:52;12.90;99.90
2002;DHT22;1003;48.002;7.788;2024-03-17T13:08:19;12.80;99.90
2002;DHT22;1003;48.002;7.788;2024-03-17T13:10:46;12.70;99.90
2002;DHT22;1003;48.002;7.788;2024-03-17T13:13:13;13.00;99.90
2002;DHT22;1003;48.002;7.788;2024-03-17T13:15:43;13.20;99.90
2002;DHT22;1003;48.002;7.788;2024-03-17T13:18:17;13.10;99.90
2002;DHT22;1003;48.002;7.788;2024-03-17T13:20:48;13.40;99.90
2002;DHT22;1003;48.002;7.788;2024-03-17T13:23:17;13.40;99.90
2002;DHT22;1003;48.002;7.788;2024-03-17T13:25:43;13.30;99.90
2002;DHT22;1003;48.002;7.788;2024-03-17T13:28:10;13.60;99.90
2002;DHT22;1003;48.002;7.788;2024-03-17T13:30:37;13.90;99.90
2002;DHT22;1003;48.002;7.788;2024-03-17T13:33:05;14.00;99.90
2002;DHT22;1003;48.002;7.788;2024-03-17T13:35:34;14.10;99.90
2002;DHT22;1003;48.002;7.788;2024-03-17T13:38:05;14.10;99.90
2002;DHT22;1003;48.002;7.788;2024-03-17T13:40:34;13.70;99.90
2002;DHT22;1003;48.002;7.788;2024-03-17T13:43:04;13.80;99.90
2002;DHT22;1003;48.002;7.788;2024-03-17T13:45:40;14.20;99.90
2002;DHT22;1003;48.002;7.788;2024-03-17T13:48:08;14.40;99.90
2002;DHT22;1003;48.002;7.788;2024-03-17T13:50:37;14.10;99.90
2002;DHT22;1003;48.002;7.788;2024-03-17T13:53:07;14.30;99.90
2002;DHT22;1003;48.002;7.788;2024-03-17T13:55:34;14.10;99.90
2002;DHT22;1003;48.002;7.788;2024-03-17T13:58:01;14.20;99.90
2002;DHT22;1003;48.002;7.788;2024-03-17T14:00:30;14.00;99.90
2002;DHT22;1003;48.002;7.788;2024-03-17T14:02:59;14.30;99.90
2002;DHT22;1003;48.002;7.788;2024-03-17T14:05:26;14.40;99.90
2002;DHT22;1003;48.002;7.788;2024-03-17T14:07:54;14.00;99.90
2002;DHT22;1003;48.002;7.788;2024-03-17T14:10:25;14.20;99.90
2002;DHT22;1003;48.002;7.788;2024-03-17T14:12:52;14.20;99.90
2002;DHT22;1003;48.002;7.788;2024-03-17T14:15:19;14.60;99.90
2002;DHT22;1003;48.002;7.788;2024-03-17T14:17:47;14.20;99.90
2002;DHT22;1003;48.002;7.788;2024-03-17T14:20:16;14.00;99.90
2002;DHT22;1003;48.002;7.788;2024-03-17T14:22:44;14.00;99.90
2002;DHT22;1003;48.002;7.788;2024-03-17T14:25:17;13.60;99.90
2002;DHT22;1003;48.002;7.788;2024-03-17T14:27:44;13.40;99.90
2002;DHT22;1003;48.002;7.788;2024-03-17T14:30:16;13.50;99.90
2002;DHT22;1003;48.002;7.788;2024-03-17T14:32:45;13.40;99.90
2002;DHT22;1003;48.002;7.788;2024-03-17T14:35:13;13.50;99.90
2002;DHT22;1003;48.002;7.788;2024-03-17T14:37:42;13.50;99.90
2002;DHT22;1003;48.002;7.788;2024-03-17T14:40:14;13.30;99.90
2002;DHT22;1003;48.002;7.788;2024-03-17T14:42:50;13.40;99.90
2002;DHT22;1003;48.002;7.788;2024-03-17T14:45:18;13.50;99.90
2002;DHT22;1003;48.002;7.788;2024-03-17T14:47:46;13.30;99.90
2002;DHT22;1003;48.002;7.788;2024-03-17T14:50:12;13.20;99.90
2002;DHT22;1003;48.002;7.788;2024-03-17T14:52:41;13.10;99.90
2002;DHT22;1003;48.002;7.788;2024-03-17T14:55:09;13.10;99.90
2002;DHT22;1003;48.002;7.788;2024-03-17T14:57:40;12.90;99.90
2002;DHT22;1003;48.002;7.788;2024-03-17T15:00:09;12.80;99.90
2002;DHT22;1003;48.002;7.788;2024-03-17T15:02:42;12.70;99.90
2002;DHT22;1003;48.002;7.788;2024-03-17T15:05:11;12.70;99.90
2002;DHT22;1003;48.002;7.788;2024-03-17T15:07:37;12.60;99.90
2002;DHT22;1003;48.002;7.788;2024-03-17T15:10:05;12.60;99.90
2002;DHT22;1003;48.002;7.788;2024-03-17T15:12:33;12.60;99.90
2002;DHT22;1003;48.002;7.788;2024-03-17T15:15:00;12.60;99.90
2002;DHT22;1003;48.002;7.788;2024-03-17T15:17:27;12.60;99.90
2002;DHT22;1003;48.002;7.788;2024-03-17T15:19:54;12.60;99.90
2002;DHT22;1003;48.002;7.788;2024-03-17T15:22:20;12.70;99.90
2002;DHT22;1003;48.002;7.788;2024-03-17T15:24:48;12.60;99.90
2002;DHT22;1003;48.002;7.788;2024-03-17T15:27:17;12.60;99.90
2002;DHT22;1003;48.002;7.788;2024-03-17T15:29:44;12.60;99.90
2002;DHT22;1003;48.002;7.788;2024-03-17T15:32:10;12.60;99.90
2002;DHT22;1003;48.002;7.788;2024-03-17T15:34:37;12.50;99.90
2002;DHT22;1003;48.002;7.788;2024-03-17T15:37:06;12.50;99.90
2002;DHT22;1003;48.002;7.788;2024-03-17T15:39:33;12.50;99.90
2002;DHT22;1003;48.002;7.788;2024-03-17T15:42:00;12.40;99.90
2002;DHT22;1003;48.002;7.788;2024-03-17T15:44:27;12.40;99.90
2002;DHT22;1003;48.002;7.788;2024-03-17T15:46:54;12.40;99.90
2002;DHT22;1003;48.002;7.788;2024-03-17T15:49:20;12.30;99.90
2002;DHT22;1003;48.002;7.788;2024-03-17T15:51:47;12.30;99.90
2002;DHT22;1003;48.002;7.788;2024-03-17T15:54:14;12.20;99.90
2002;DHT22;1003;48.002;7.788;2024-03-17T15:56:44;12.10;99.90
2002;DHT22;1003;48.002;7.788;2024-03-17T15:59:10;12.10;99.90
2002;DHT22;1003;48.002;7.788;2024-03-17T16:01:37;12.00;99.90
2002;DHT22;1003;48.002;7.788;2024-03-17T16:04:04;12.00;99.90
2002;DHT22;1003;48.002;7.788;2024-03-17T16:06:31;11.90;99.90
2002;DHT22;1003;48.002;7.788;2024-03-17T16:08:59;11.90;99.90
2002;DHT22;1003;48.002;7.788;2024-03-17T16:11:29;11.90;99.90
2002;DHT22;1003;48.002;7.788;2024-03-17T16:13:59;11.70;99.90
2002;DHT22;1003;48.002;7.788;2024-03-17T16:16:27;11.70;99.90
2002;DHT22;1003;48.002;7.788;2024-03-17T16:18:57;11.80;99.90
2002;DHT22;1003;48.002;7.788;2024-03-17T16:21:25;11.80;99.90
2002;DHT22;1003;48.002;7.788;2024-03-17T16:23:59;11.70;99.90
2002;DHT22;1003;48.002;7.788;2024-03-17T16:26:33;11.70;99.90
2002;DHT22;1003;48.002;7.788;2024-03-17T16:29:02;11.80;99.90
2002;DHT22;1003;48.002;7.788;2024-03-17T16:31:30;11.70;99.90
2002;DHT22;1003;48.002;7.788;2024-03-17T16:33:57;11.70;99.90
2002;DHT22;1003;48.002;7.788;2024-03-17T16:36:26;11.60;99.90